createdAt,value
2022-10-05T00:00:08.920Z,498.91
2022-10-05T00:00:18.920Z,498.87
2022-10-05T00:00:28.921Z,498.85
2022-10-05T00:00:38.939Z,498.89
2022-10-05T00:00:48.923Z,498.92
2022-10-05T00:00:58.957Z,498.96
2022-10-05T00:01:08.928Z,499.00
2022-10-05T00:01:18.957Z,499.02
2022-10-05T00:01:28.998Z,499.02
2022-10-05T00:01:38.977Z,498.98
2022-10-05T00:01:48.974Z,499.11
2022-10-05T00:01:59.009Z,499.17
2022-10-05T00:02:08.976Z,499.20
2022-10-05T00:02:18.930Z,499.16
2022-10-05T00:02:28.933Z,499.17
2022-10-05T00:02:38.940Z,499.17
2022-10-05T00:02:48.938Z,499.14
2022-10-05T00:02:58.935Z,499.23
2022-10-05T00:03:08.935Z,499.20
2022-10-05T00:03:18.936Z,499.17
2022-10-05T00:03:28.942Z,499.23
2022-10-05T00:03:38.942Z,499.26
2022-10-05T00:03:48.967Z,499.24
2022-10-05T00:03:58.987Z,499.31
2022-10-05T00:04:08.984Z,499.40
2022-10-05T00:04:18.955Z,499.45
2022-10-05T00:04:28.954Z,499.42
2022-10-05T00:04:38.952Z,499.48
2022-10-05T00:04:48.987Z,499.48
2022-10-05T00:04:59.003Z,499.52
2022-10-05T00:05:09.035Z,499.50
2022-10-05T00:05:19.021Z,499.62
2022-10-05T00:05:29.017Z,499.61
2022-10-05T00:05:38.976Z,499.63
2022-10-05T00:05:48.948Z,499.62
2022-10-05T00:05:58.956Z,499.68
2022-10-05T00:06:08.952Z,499.65
2022-10-05T00:06:18.953Z,499.73
2022-10-05T00:06:28.951Z,499.79
2022-10-05T00:06:38.957Z,499.74
2022-10-05T00:06:49.186Z,499.75
2022-10-05T00:06:58.955Z,499.81
2022-10-05T00:07:08.955Z,499.86
2022-10-05T00:07:18.959Z,499.88
2022-10-05T00:07:28.957Z,499.87
2022-10-05T00:07:38.958Z,499.84
2022-10-05T00:07:48.957Z,499.93
2022-10-05T00:07:58.966Z,499.97
2022-10-05T00:08:08.961Z,499.98
2022-10-05T00:08:18.965Z,499.99
2022-10-05T00:08:28.963Z,500.03
2022-10-05T00:08:38.963Z,500.03
2022-10-05T00:08:48.964Z,500.05
2022-10-05T00:08:58.970Z,500.10
2022-10-05T00:09:08.965Z,500.08
2022-10-05T00:09:18.956Z,500.03
2022-10-05T00:09:28.965Z,500.06
2022-10-05T00:09:38.967Z,500.09
2022-10-05T00:09:48.968Z,500.16
2022-10-05T00:09:58.954Z,500.08
2022-10-05T00:10:08.970Z,500.19
2022-10-05T00:10:18.970Z,500.12
2022-10-05T00:10:28.972Z,500.21
2022-10-05T00:10:38.974Z,500.23
2022-10-05T00:10:48.977Z,500.22
2022-10-05T00:10:58.986Z,500.27
2022-10-05T00:11:08.975Z,500.25
2022-10-05T00:11:18.978Z,500.31
2022-10-05T00:11:28.978Z,500.32
2022-10-05T00:11:38.979Z,500.34
2022-10-05T00:11:49.044Z,500.37
2022-10-05T00:11:59.003Z,500.37
2022-10-05T00:12:08.988Z,500.31
2022-10-05T00:12:18.987Z,500.33
2022-10-05T00:12:28.989Z,500.39
2022-10-05T00:12:38.987Z,500.32
2022-10-05T00:12:48.988Z,500.30
2022-10-05T00:12:58.987Z,500.30
2022-10-05T00:13:08.997Z,500.34
2022-10-05T00:13:18.988Z,500.24
2022-10-05T00:13:28.993Z,500.20
2022-10-05T00:13:38.990Z,500.11
2022-10-05T00:13:48.990Z,500.18
2022-10-05T00:13:59.002Z,500.18
2022-10-05T00:14:09.005Z,500.13
2022-10-05T00:14:18.993Z,500.04
2022-10-05T00:14:29.000Z,500.01
2022-10-05T00:14:38.994Z,499.98
2022-10-05T00:14:49.011Z,499.95
2022-10-05T00:14:59.013Z,499.95
2022-10-05T00:15:09.007Z,499.86
2022-10-05T00:15:19.003Z,499.91
2022-10-05T00:15:29.002Z,500.01
2022-10-05T00:15:39.002Z,499.89
2022-10-05T00:15:49.005Z,499.92
2022-10-05T00:15:59.005Z,499.92
2022-10-05T00:16:09.059Z,499.91
2022-10-05T00:16:19.033Z,500.03
2022-10-05T00:16:29.027Z,500.06
2022-10-05T00:16:39.065Z,500.14
2022-10-05T00:16:49.720Z,500.23
2022-10-05T00:16:59.143Z,500.16
2022-10-05T00:17:09.011Z,500.15
2022-10-05T00:17:19.013Z,500.16
2022-10-05T00:17:29.013Z,500.11
2022-10-05T00:17:39.013Z,500.02
2022-10-05T00:17:49.016Z,500.02
2022-10-05T00:17:58.998Z,500.01
2022-10-05T00:18:09.018Z,500.06
2022-10-05T00:18:19.015Z,500.08
2022-10-05T00:18:29.000Z,500.03
2022-10-05T00:18:39.026Z,500.09
2022-10-05T00:18:49.017Z,500.09
2022-10-05T00:18:59.025Z,500.12
2022-10-05T00:19:09.010Z,500.09
2022-10-05T00:19:19.020Z,500.12
2022-10-05T00:19:29.021Z,500.13
2022-10-05T00:19:39.023Z,500.11
2022-10-05T00:19:49.024Z,500.18
2022-10-05T00:19:59.024Z,500.22
2022-10-05T00:20:09.026Z,500.24
2022-10-05T00:20:19.025Z,500.23
2022-10-05T00:20:29.026Z,500.30
2022-10-05T00:20:39.027Z,500.44
2022-10-05T00:20:49.039Z,500.53
2022-10-05T00:20:59.029Z,500.55
2022-10-05T00:21:09.035Z,500.57
2022-10-05T00:21:19.037Z,500.75
2022-10-05T00:21:29.034Z,500.83
2022-10-05T00:21:39.034Z,500.80
2022-10-05T00:21:49.034Z,500.91
2022-10-05T00:21:59.036Z,500.96
2022-10-05T00:22:09.038Z,500.94
2022-10-05T00:22:19.043Z,501.03
2022-10-05T00:22:29.039Z,501.03
2022-10-05T00:22:39.043Z,501.09
2022-10-05T00:22:49.041Z,501.21
2022-10-05T00:22:59.040Z,501.19
2022-10-05T00:23:09.042Z,501.21
2022-10-05T00:23:19.046Z,501.30
2022-10-05T00:23:29.051Z,501.34
2022-10-05T00:23:39.045Z,501.40
2022-10-05T00:23:49.046Z,501.48
2022-10-05T00:23:59.047Z,501.50
2022-10-05T00:24:09.049Z,501.66
2022-10-05T00:24:19.048Z,501.58
2022-10-05T00:24:29.049Z,501.68
2022-10-05T00:24:39.050Z,501.68
2022-10-05T00:24:49.049Z,501.77
2022-10-05T00:24:59.051Z,501.89
2022-10-05T00:25:09.055Z,501.88
2022-10-05T00:25:19.054Z,502.01
2022-10-05T00:25:29.055Z,502.03
2022-10-05T00:25:39.053Z,502.09
2022-10-05T00:25:49.061Z,502.10
2022-10-05T00:25:59.056Z,502.12
2022-10-05T00:26:09.058Z,502.15
2022-10-05T00:26:19.062Z,502.18
2022-10-05T00:26:29.061Z,502.10
2022-10-05T00:26:39.062Z,502.15
2022-10-05T00:26:52.722Z,502.09
2022-10-05T00:27:00.072Z,502.08
2022-10-05T00:27:09.072Z,502.04
2022-10-05T00:27:19.066Z,502.01
2022-10-05T00:27:29.069Z,502.01
2022-10-05T00:27:39.070Z,502.00
2022-10-05T00:27:49.070Z,501.90
2022-10-05T00:27:59.126Z,501.86
2022-10-05T00:28:09.167Z,501.88
2022-10-05T00:28:19.099Z,501.78
2022-10-05T00:28:29.187Z,501.73
2022-10-05T00:28:39.074Z,501.80
2022-10-05T00:28:49.079Z,501.73
2022-10-05T00:28:59.078Z,501.72
2022-10-05T00:29:09.079Z,501.74
2022-10-05T00:29:19.080Z,501.75
2022-10-05T00:29:29.063Z,501.75
2022-10-05T00:29:39.082Z,501.73
2022-10-05T00:29:49.085Z,501.80
2022-10-05T00:29:59.084Z,501.73
2022-10-05T00:30:09.066Z,501.73
2022-10-05T00:30:19.084Z,501.69
2022-10-05T00:30:29.087Z,501.73
2022-10-05T00:30:39.086Z,501.83
2022-10-05T00:30:49.090Z,501.86
2022-10-05T00:30:59.107Z,501.81
2022-10-05T00:31:09.090Z,501.78
2022-10-05T00:31:19.136Z,501.88
2022-10-05T00:31:29.123Z,501.94
2022-10-05T00:31:39.181Z,501.94
2022-10-05T00:31:49.138Z,501.84
2022-10-05T00:31:59.174Z,501.87
2022-10-05T00:32:09.188Z,501.83
2022-10-05T00:32:19.083Z,501.73
2022-10-05T00:32:29.106Z,501.84
2022-10-05T00:32:39.104Z,501.79
2022-10-05T00:32:49.098Z,501.74
2022-10-05T00:32:59.964Z,501.89
2022-10-05T00:33:09.099Z,501.82
2022-10-05T00:33:19.100Z,501.75
2022-10-05T00:33:29.100Z,501.80
2022-10-05T00:33:39.104Z,501.81
2022-10-05T00:33:49.101Z,501.77
2022-10-05T00:33:59.108Z,501.71
2022-10-05T00:34:09.103Z,501.74
2022-10-05T00:34:19.104Z,501.90
2022-10-05T00:34:29.106Z,501.88
2022-10-05T00:34:39.106Z,501.87
2022-10-05T00:34:49.108Z,501.83
2022-10-05T00:34:59.117Z,501.78
2022-10-05T00:35:09.109Z,501.87
2022-10-05T00:35:19.111Z,501.93
2022-10-05T00:35:29.125Z,501.92
2022-10-05T00:35:39.112Z,501.80
2022-10-05T00:35:49.118Z,501.75
2022-10-05T00:35:59.116Z,501.88
2022-10-05T00:36:09.117Z,501.81
2022-10-05T00:36:19.123Z,501.85
2022-10-05T00:36:29.119Z,501.83
2022-10-05T00:36:39.129Z,501.89
2022-10-05T00:36:49.550Z,501.83
2022-10-05T00:36:59.120Z,501.80
2022-10-05T00:37:09.120Z,501.85
2022-10-05T00:37:19.122Z,501.84
2022-10-05T00:37:29.126Z,501.76
2022-10-05T00:37:39.124Z,501.88
2022-10-05T00:37:49.128Z,501.91
2022-10-05T00:37:59.109Z,501.83
2022-10-05T00:38:09.128Z,501.82
2022-10-05T00:38:19.131Z,501.70
2022-10-05T00:38:29.131Z,501.71
2022-10-05T00:38:39.136Z,501.75
2022-10-05T00:38:49.137Z,501.74
2022-10-05T00:38:59.135Z,501.67
2022-10-05T00:39:09.137Z,501.68
2022-10-05T00:39:19.136Z,501.68
2022-10-05T00:39:29.138Z,501.58
2022-10-05T00:39:39.138Z,501.60
2022-10-05T00:39:49.141Z,501.62
2022-10-05T00:39:59.141Z,501.64
2022-10-05T00:40:09.144Z,501.61
2022-10-05T00:40:19.145Z,501.67
2022-10-05T00:40:29.145Z,501.54
2022-10-05T00:40:39.144Z,501.49
2022-10-05T00:40:49.147Z,501.52
2022-10-05T00:40:59.146Z,501.50
2022-10-05T00:41:09.151Z,501.43
2022-10-05T00:41:19.148Z,501.39
2022-10-05T00:41:29.160Z,501.39
2022-10-05T00:41:39.148Z,501.38
2022-10-05T00:41:49.152Z,501.30
2022-10-05T00:41:59.151Z,501.25
2022-10-05T00:42:09.154Z,501.19
2022-10-05T00:42:19.156Z,501.19
2022-10-05T00:42:29.154Z,501.16
2022-10-05T00:42:39.158Z,501.14
2022-10-05T00:42:49.155Z,501.14
2022-10-05T00:42:59.154Z,501.12
2022-10-05T00:43:09.160Z,501.11
2022-10-05T00:43:19.158Z,501.12
2022-10-05T00:43:29.159Z,501.11
2022-10-05T00:43:39.159Z,501.10
2022-10-05T00:43:49.164Z,501.04
2022-10-05T00:43:59.161Z,500.99
2022-10-05T00:44:09.160Z,500.92
2022-10-05T00:44:19.164Z,500.93
2022-10-05T00:44:29.163Z,500.98
2022-10-05T00:44:39.164Z,500.91
2022-10-05T00:44:49.187Z,500.93
2022-10-05T00:44:59.167Z,500.92
2022-10-05T00:45:09.173Z,500.90
2022-10-05T00:45:19.172Z,500.86
2022-10-05T00:45:29.202Z,500.89
2022-10-05T00:45:39.198Z,500.96
2022-10-05T00:45:49.223Z,500.90
2022-10-05T00:45:59.255Z,500.86
2022-10-05T00:46:09.280Z,500.93
2022-10-05T00:46:19.261Z,500.98
2022-10-05T00:46:29.176Z,500.96
2022-10-05T00:46:39.178Z,500.92
2022-10-05T00:46:49.287Z,500.87
2022-10-05T00:46:59.177Z,500.94
2022-10-05T00:47:09.180Z,500.89
2022-10-05T00:47:19.179Z,500.87
2022-10-05T00:47:29.178Z,500.79
2022-10-05T00:47:39.180Z,500.88
2022-10-05T00:47:49.165Z,500.90
2022-10-05T00:47:59.182Z,500.92
2022-10-05T00:48:09.186Z,500.94
2022-10-05T00:48:19.189Z,501.05
2022-10-05T00:48:29.187Z,501.05
2022-10-05T00:48:39.194Z,500.95
2022-10-05T00:48:49.169Z,500.89
2022-10-05T00:48:59.194Z,500.81
2022-10-05T00:49:09.189Z,500.79
2022-10-05T00:49:19.195Z,500.86
2022-10-05T00:49:29.192Z,500.90
2022-10-05T00:49:39.192Z,500.85
2022-10-05T00:49:49.174Z,500.90
2022-10-05T00:49:59.192Z,500.82
2022-10-05T00:50:09.195Z,500.81
2022-10-05T00:50:19.196Z,500.77
2022-10-05T00:50:29.197Z,500.83
2022-10-05T00:50:39.196Z,500.79
2022-10-05T00:50:49.197Z,500.90
2022-10-05T00:50:59.197Z,500.75
2022-10-05T00:51:09.198Z,500.68
2022-10-05T00:51:19.200Z,500.65
2022-10-05T00:51:29.216Z,500.65
2022-10-05T00:51:39.200Z,500.59
2022-10-05T00:51:49.203Z,500.50
2022-10-05T00:51:59.207Z,500.60
2022-10-05T00:52:09.203Z,500.58
2022-10-05T00:52:19.204Z,500.58
2022-10-05T00:52:29.206Z,500.61
2022-10-05T00:52:39.212Z,500.66
2022-10-05T00:52:49.205Z,500.72
2022-10-05T00:52:59.208Z,500.66
2022-10-05T00:53:09.191Z,500.65
2022-10-05T00:53:19.208Z,500.62
2022-10-05T00:53:29.214Z,500.62
2022-10-05T00:53:39.215Z,500.60
2022-10-05T00:53:49.215Z,500.58
2022-10-05T00:53:59.217Z,500.64
2022-10-05T00:54:09.217Z,500.71
2022-10-05T00:54:19.215Z,500.73
2022-10-05T00:54:29.218Z,500.73
2022-10-05T00:54:39.218Z,500.70
2022-10-05T00:54:49.218Z,500.64
2022-10-05T00:54:59.220Z,500.69
2022-10-05T00:55:09.222Z,500.71
2022-10-05T00:55:19.202Z,500.73
2022-10-05T00:55:29.223Z,500.74
2022-10-05T00:55:39.222Z,500.64
2022-10-05T00:55:49.227Z,500.54
2022-10-05T00:55:59.226Z,500.52
2022-10-05T00:56:09.226Z,500.60
2022-10-05T00:56:19.225Z,500.58
2022-10-05T00:56:29.229Z,500.53
2022-10-05T00:56:39.228Z,500.55
2022-10-05T00:56:49.251Z,500.53
2022-10-05T00:56:59.229Z,500.55
2022-10-05T00:57:09.230Z,500.54
2022-10-05T00:57:19.231Z,500.60
2022-10-05T00:57:29.234Z,500.58
2022-10-05T00:57:39.233Z,500.50
2022-10-05T00:57:49.234Z,500.49
2022-10-05T00:57:59.235Z,500.54
2022-10-05T00:58:09.241Z,500.58
2022-10-05T00:58:19.236Z,500.52
2022-10-05T00:58:29.238Z,500.49
2022-10-05T00:58:39.240Z,500.44
2022-10-05T00:58:49.240Z,500.45
2022-10-05T00:58:59.240Z,500.49
2022-10-05T00:59:09.242Z,500.50
2022-10-05T00:59:19.244Z,500.60
2022-10-05T00:59:29.243Z,500.62
2022-10-05T00:59:39.242Z,500.58
2022-10-05T00:59:49.246Z,500.68
2022-10-05T00:59:59.248Z,500.70
2022-10-05T01:00:09.250Z,500.74
2022-10-05T01:00:19.247Z,500.95
2022-10-05T01:00:29.251Z,500.93
2022-10-05T01:00:39.254Z,500.92
2022-10-05T01:00:49.288Z,501.00
2022-10-05T01:00:59.300Z,501.06
2022-10-05T01:01:09.327Z,501.09
2022-10-05T01:01:19.358Z,501.18
2022-10-05T01:01:29.365Z,501.24
2022-10-05T01:01:39.331Z,501.25
2022-10-05T01:01:49.335Z,501.41
2022-10-05T01:01:59.283Z,501.35
2022-10-05T01:02:09.318Z,501.45
2022-10-05T01:02:19.303Z,501.56
2022-10-05T01:02:33.006Z,501.62
2022-10-05T01:02:40.306Z,501.67
2022-10-05T01:02:49.293Z,501.67
2022-10-05T01:02:59.262Z,501.77
2022-10-05T01:03:09.267Z,501.77
2022-10-05T01:03:19.268Z,501.79
2022-10-05T01:03:29.270Z,501.93
2022-10-05T01:03:39.266Z,501.83
2022-10-05T01:03:49.268Z,501.81
2022-10-05T01:03:59.268Z,501.97
2022-10-05T01:04:09.267Z,501.85
2022-10-05T01:04:19.269Z,501.86
2022-10-05T01:04:29.268Z,501.98
2022-10-05T01:04:39.272Z,501.91
2022-10-05T01:04:49.276Z,501.96
2022-10-05T01:04:59.273Z,502.05
2022-10-05T01:05:09.274Z,502.15
2022-10-05T01:05:19.272Z,502.14
2022-10-05T01:05:29.272Z,502.07
2022-10-05T01:05:39.274Z,501.94
2022-10-05T01:05:49.277Z,502.01
2022-10-05T01:05:59.275Z,501.98
2022-10-05T01:06:09.281Z,501.97
2022-10-05T01:06:19.277Z,501.95
2022-10-05T01:06:29.283Z,502.10
2022-10-05T01:06:39.279Z,502.21
2022-10-05T01:06:49.279Z,502.21
2022-10-05T01:06:59.281Z,502.24
2022-10-05T01:07:09.283Z,502.29
2022-10-05T01:07:19.285Z,502.26
2022-10-05T01:07:29.282Z,502.31
2022-10-05T01:07:39.289Z,502.34
2022-10-05T01:07:49.287Z,502.44
2022-10-05T01:07:59.289Z,502.45
2022-10-05T01:08:09.299Z,502.60
2022-10-05T01:08:19.291Z,502.61
2022-10-05T01:08:29.290Z,502.56
2022-10-05T01:08:39.291Z,502.50
2022-10-05T01:08:49.292Z,502.46
2022-10-05T01:08:59.295Z,502.59
2022-10-05T01:09:09.295Z,502.72
2022-10-05T01:09:19.307Z,502.83
2022-10-05T01:09:29.296Z,502.95
2022-10-05T01:09:39.297Z,502.99
2022-10-05T01:09:49.297Z,502.96
2022-10-05T01:09:59.303Z,502.96
2022-10-05T01:10:09.299Z,503.05
2022-10-05T01:10:19.300Z,503.13
2022-10-05T01:10:29.319Z,503.22
2022-10-05T01:10:39.302Z,503.18
2022-10-05T01:10:49.305Z,503.31
2022-10-05T01:10:59.305Z,503.28
2022-10-05T01:11:09.306Z,503.26
2022-10-05T01:11:19.308Z,503.30
2022-10-05T01:11:29.309Z,503.43
2022-10-05T01:11:39.309Z,503.54
2022-10-05T01:11:49.310Z,503.51
2022-10-05T01:11:59.312Z,503.43
2022-10-05T01:12:09.311Z,503.41
2022-10-05T01:12:19.314Z,503.53
2022-10-05T01:12:29.313Z,503.46
2022-10-05T01:12:39.315Z,503.60
2022-10-05T01:12:49.315Z,503.63
2022-10-05T01:12:59.317Z,503.55
2022-10-05T01:13:09.314Z,503.53
2022-10-05T01:13:19.317Z,503.54
2022-10-05T01:13:29.318Z,503.51
2022-10-05T01:13:39.315Z,503.44
2022-10-05T01:13:49.316Z,503.46
2022-10-05T01:13:59.318Z,503.47
2022-10-05T01:14:09.319Z,503.36
2022-10-05T01:14:19.319Z,503.47
2022-10-05T01:14:29.319Z,503.48
2022-10-05T01:14:39.321Z,503.43
2022-10-05T01:14:49.320Z,503.53
2022-10-05T01:14:59.323Z,503.52
2022-10-05T01:15:09.322Z,503.58
2022-10-05T01:15:19.331Z,503.58
2022-10-05T01:15:29.338Z,503.54
2022-10-05T01:15:39.327Z,503.41
2022-10-05T01:15:49.329Z,503.58
2022-10-05T01:15:59.375Z,503.57
2022-10-05T01:16:09.380Z,503.63
2022-10-05T01:16:19.376Z,503.75
2022-10-05T01:16:29.398Z,503.71
2022-10-05T01:16:39.379Z,503.74
2022-10-05T01:16:49.852Z,503.73
2022-10-05T01:16:59.381Z,503.85
2022-10-05T01:17:09.333Z,503.90
2022-10-05T01:17:19.334Z,503.87
2022-10-05T01:17:29.334Z,503.88
2022-10-05T01:17:39.334Z,503.82
2022-10-05T01:17:49.340Z,503.84
2022-10-05T01:17:59.338Z,503.96
2022-10-05T01:18:09.338Z,504.02
2022-10-05T01:18:19.341Z,504.02
2022-10-05T01:18:29.347Z,504.08
2022-10-05T01:18:39.344Z,503.98
2022-10-05T01:18:49.344Z,503.88
2022-10-05T01:18:59.344Z,503.94
2022-10-05T01:19:09.346Z,503.92
2022-10-05T01:19:19.347Z,503.86
2022-10-05T01:19:29.349Z,503.89
2022-10-05T01:19:39.349Z,503.84
2022-10-05T01:19:49.352Z,503.79
2022-10-05T01:19:59.352Z,503.65
2022-10-05T01:20:09.351Z,503.63
2022-10-05T01:20:19.354Z,503.63
2022-10-05T01:20:29.355Z,503.55
2022-10-05T01:20:39.362Z,503.56
2022-10-05T01:20:49.362Z,503.54
2022-10-05T01:20:59.360Z,503.51
2022-10-05T01:21:09.356Z,503.64
2022-10-05T01:21:19.340Z,503.64
2022-10-05T01:21:29.359Z,503.73
2022-10-05T01:21:39.359Z,503.77
2022-10-05T01:21:49.360Z,503.75
2022-10-05T01:21:59.363Z,503.81
2022-10-05T01:22:09.365Z,503.92
2022-10-05T01:22:19.363Z,503.92
2022-10-05T01:22:29.366Z,503.92
2022-10-05T01:22:39.365Z,504.01
2022-10-05T01:22:49.369Z,504.03
2022-10-05T01:22:59.366Z,503.97
2022-10-05T01:23:09.369Z,503.95
2022-10-05T01:23:19.368Z,503.91
2022-10-05T01:23:29.369Z,503.97
2022-10-05T01:23:39.351Z,504.02
2022-10-05T01:23:49.372Z,503.97
2022-10-05T01:23:59.372Z,503.91
2022-10-05T01:24:09.372Z,503.75
2022-10-05T01:24:19.374Z,503.73
2022-10-05T01:24:29.374Z,503.83
2022-10-05T01:24:39.374Z,503.86
2022-10-05T01:24:49.376Z,503.78
2022-10-05T01:24:59.379Z,503.66
2022-10-05T01:25:09.379Z,503.65
2022-10-05T01:25:19.380Z,503.77
2022-10-05T01:25:29.381Z,503.59
2022-10-05T01:25:39.385Z,503.59
2022-10-05T01:25:49.370Z,503.58
2022-10-05T01:25:59.386Z,503.50
2022-10-05T01:26:09.386Z,503.57
2022-10-05T01:26:19.385Z,503.72
2022-10-05T01:26:29.387Z,503.71
2022-10-05T01:26:39.388Z,503.69
2022-10-05T01:26:49.712Z,503.73
2022-10-05T01:26:59.391Z,503.68
2022-10-05T01:27:09.393Z,503.67
2022-10-05T01:27:19.393Z,503.67
2022-10-05T01:27:29.398Z,503.77
2022-10-05T01:27:39.398Z,503.83
2022-10-05T01:27:49.395Z,503.87
2022-10-05T01:27:59.459Z,503.86
2022-10-05T01:28:09.434Z,504.02
2022-10-05T01:28:19.465Z,504.03
2022-10-05T01:28:29.524Z,504.14
2022-10-05T01:28:39.401Z,504.11
2022-10-05T01:28:49.401Z,504.13
2022-10-05T01:28:59.400Z,504.18
2022-10-05T01:29:09.533Z,504.18
2022-10-05T01:29:19.401Z,504.10
2022-10-05T01:29:29.405Z,504.00
2022-10-05T01:29:39.390Z,504.02
2022-10-05T01:29:49.408Z,504.08
2022-10-05T01:29:59.407Z,504.05
2022-10-05T01:30:09.406Z,504.13
2022-10-05T01:30:19.406Z,504.08
2022-10-05T01:30:29.389Z,504.08
2022-10-05T01:30:39.418Z,504.14
2022-10-05T01:30:49.412Z,504.19
2022-10-05T01:30:59.408Z,504.14
2022-10-05T01:31:09.450Z,504.13
2022-10-05T01:31:19.534Z,504.11
2022-10-05T01:31:29.465Z,504.11
2022-10-05T01:31:39.431Z,504.07
2022-10-05T01:31:49.470Z,503.98
2022-10-05T01:31:59.475Z,504.05
2022-10-05T01:32:09.413Z,504.02
2022-10-05T01:32:19.422Z,504.00
2022-10-05T01:32:29.417Z,503.94
2022-10-05T01:32:39.398Z,503.96
2022-10-05T01:32:49.419Z,503.94
2022-10-05T01:32:59.418Z,503.82
2022-10-05T01:33:09.419Z,503.60
2022-10-05T01:33:19.421Z,503.50
2022-10-05T01:33:29.422Z,503.47
2022-10-05T01:33:39.422Z,503.40
2022-10-05T01:33:49.423Z,503.43
2022-10-05T01:33:59.426Z,503.48
2022-10-05T01:34:11.635Z,503.45
2022-10-05T01:34:19.426Z,503.46
2022-10-05T01:34:29.427Z,503.41
2022-10-05T01:34:39.446Z,503.36
2022-10-05T01:34:49.430Z,503.47
2022-10-05T01:34:59.412Z,503.48
2022-10-05T01:35:09.429Z,503.32
2022-10-05T01:35:19.431Z,503.25
2022-10-05T01:35:29.434Z,503.31
2022-10-05T01:35:39.433Z,503.52
2022-10-05T01:35:49.440Z,503.59
2022-10-05T01:35:59.437Z,503.72
2022-10-05T01:36:09.442Z,503.70
2022-10-05T01:36:19.440Z,503.59
2022-10-05T01:36:29.439Z,503.67
2022-10-05T01:36:39.439Z,503.72
2022-10-05T01:36:49.641Z,503.90
2022-10-05T01:36:59.440Z,503.87
2022-10-05T01:37:09.443Z,503.94
2022-10-05T01:37:19.441Z,504.08
2022-10-05T01:37:29.444Z,504.03
2022-10-05T01:37:39.454Z,504.02
2022-10-05T01:37:49.444Z,504.10
2022-10-05T01:37:59.459Z,504.19
2022-10-05T01:38:09.447Z,504.16
2022-10-05T01:38:19.449Z,504.22
2022-10-05T01:38:29.448Z,504.24
2022-10-05T01:38:39.450Z,504.34
2022-10-05T01:38:49.450Z,504.49
2022-10-05T01:38:59.450Z,504.54
2022-10-05T01:39:10.250Z,504.58
2022-10-05T01:39:19.453Z,504.52
2022-10-05T01:39:29.452Z,504.64
2022-10-05T01:39:39.454Z,504.71
2022-10-05T01:39:49.455Z,504.78
2022-10-05T01:39:59.457Z,504.94
2022-10-05T01:40:09.462Z,504.96
2022-10-05T01:40:19.459Z,505.02
2022-10-05T01:40:29.468Z,505.08
2022-10-05T01:40:39.463Z,505.01
2022-10-05T01:40:49.467Z,504.98
2022-10-05T01:40:59.462Z,505.08
2022-10-05T01:41:09.465Z,504.97
2022-10-05T01:41:19.463Z,504.99
2022-10-05T01:41:29.466Z,505.14
2022-10-05T01:41:39.466Z,505.22
2022-10-05T01:41:49.469Z,505.20
2022-10-05T01:41:59.471Z,505.16
2022-10-05T01:42:09.469Z,505.14
2022-10-05T01:42:19.473Z,505.21
2022-10-05T01:42:29.492Z,505.20
2022-10-05T01:42:39.473Z,505.19
2022-10-05T01:42:49.474Z,505.22
2022-10-05T01:42:59.475Z,505.34
2022-10-05T01:43:09.475Z,505.36
2022-10-05T01:43:19.480Z,505.24
2022-10-05T01:43:29.479Z,505.33
2022-10-05T01:43:39.479Z,505.40
2022-10-05T01:43:49.480Z,505.44
2022-10-05T01:43:59.482Z,505.43
2022-10-05T01:44:10.255Z,505.40
2022-10-05T01:44:19.483Z,505.37
2022-10-05T01:44:29.486Z,505.53
2022-10-05T01:44:39.484Z,505.48
2022-10-05T01:44:49.486Z,505.43
2022-10-05T01:44:59.486Z,505.49
2022-10-05T01:45:09.490Z,505.58
2022-10-05T01:45:19.489Z,505.64
2022-10-05T01:45:29.514Z,505.57
2022-10-05T01:45:39.540Z,505.56
2022-10-05T01:45:49.537Z,505.58
2022-10-05T01:45:59.549Z,505.67
2022-10-05T01:46:09.591Z,505.78
2022-10-05T01:46:19.520Z,505.69
2022-10-05T01:46:29.502Z,505.72
2022-10-05T01:46:39.496Z,505.79
2022-10-05T01:46:49.638Z,505.75
2022-10-05T01:46:59.498Z,505.73
2022-10-05T01:47:09.505Z,505.84
2022-10-05T01:47:19.498Z,505.91
2022-10-05T01:47:29.499Z,506.01
2022-10-05T01:47:39.499Z,505.96
2022-10-05T01:47:49.502Z,506.00
2022-10-05T01:47:59.504Z,506.00
2022-10-05T01:48:09.503Z,505.99
2022-10-05T01:48:19.503Z,505.98
2022-10-05T01:48:29.502Z,506.03
2022-10-05T01:48:39.505Z,506.07
2022-10-05T01:48:49.505Z,505.92
2022-10-05T01:48:59.504Z,505.96
2022-10-05T01:49:10.254Z,505.94
2022-10-05T01:49:19.489Z,505.91
2022-10-05T01:49:29.508Z,505.78
2022-10-05T01:49:39.508Z,505.67
2022-10-05T01:49:49.509Z,505.63
2022-10-05T01:49:59.509Z,505.58
2022-10-05T01:50:09.511Z,505.48
2022-10-05T01:50:19.512Z,505.43
2022-10-05T01:50:29.514Z,505.37
2022-10-05T01:50:39.514Z,505.42
2022-10-05T01:50:49.520Z,505.27
2022-10-05T01:50:59.517Z,505.18
2022-10-05T01:51:09.518Z,505.09
2022-10-05T01:51:19.519Z,505.17
2022-10-05T01:51:29.520Z,505.04
2022-10-05T01:51:39.521Z,505.06
2022-10-05T01:51:49.522Z,505.09
2022-10-05T01:51:59.524Z,505.11
2022-10-05T01:52:09.525Z,505.09
2022-10-05T01:52:19.526Z,505.19
2022-10-05T01:52:29.530Z,505.16
2022-10-05T01:52:39.526Z,505.07
2022-10-05T01:52:49.530Z,505.02
2022-10-05T01:52:59.539Z,504.94
2022-10-05T01:53:09.513Z,504.94
2022-10-05T01:53:19.533Z,504.98
2022-10-05T01:53:29.532Z,505.05
2022-10-05T01:53:39.535Z,504.99
2022-10-05T01:53:49.533Z,504.96
2022-10-05T01:53:59.537Z,504.88
2022-10-05T01:54:09.547Z,504.93
2022-10-05T01:54:19.538Z,504.88
2022-10-05T01:54:29.542Z,504.90
2022-10-05T01:54:39.537Z,504.98
2022-10-05T01:54:49.520Z,504.94
2022-10-05T01:54:59.541Z,505.03
2022-10-05T01:55:09.541Z,504.95
2022-10-05T01:55:19.525Z,504.94
2022-10-05T01:55:29.544Z,505.01
2022-10-05T01:55:39.545Z,505.04
2022-10-05T01:55:49.530Z,505.02
2022-10-05T01:55:59.547Z,505.02
2022-10-05T01:56:09.548Z,504.95
2022-10-05T01:56:19.549Z,504.87
2022-10-05T01:56:29.549Z,504.86
2022-10-05T01:56:39.551Z,504.75
2022-10-05T01:56:49.616Z,504.66
2022-10-05T01:56:59.558Z,504.78
2022-10-05T01:57:09.555Z,504.89
2022-10-05T01:57:19.554Z,504.84
2022-10-05T01:57:29.556Z,504.82
2022-10-05T01:57:39.555Z,504.91
2022-10-05T01:57:49.557Z,504.94
2022-10-05T01:57:59.565Z,504.85
2022-10-05T01:58:09.540Z,504.98
2022-10-05T01:58:19.559Z,504.98
2022-10-05T01:58:29.560Z,504.86
2022-10-05T01:58:39.559Z,504.97
2022-10-05T01:58:49.559Z,505.14
2022-10-05T01:58:59.562Z,505.10
2022-10-05T01:59:09.562Z,505.17
2022-10-05T01:59:19.563Z,505.19
2022-10-05T01:59:29.566Z,505.22
2022-10-05T01:59:39.565Z,505.21
2022-10-05T01:59:49.567Z,505.27
2022-10-05T01:59:59.567Z,505.29
2022-10-05T02:00:09.568Z,505.36
2022-10-05T02:00:19.552Z,505.37
2022-10-05T02:00:29.568Z,505.21
2022-10-05T02:00:39.742Z,505.30
2022-10-05T02:00:49.596Z,505.24
2022-10-05T02:00:59.683Z,505.26
2022-10-05T02:01:09.633Z,505.20
2022-10-05T02:01:19.667Z,505.25
2022-10-05T02:01:29.618Z,505.32
2022-10-05T02:01:39.575Z,505.37
2022-10-05T02:01:49.638Z,505.38
2022-10-05T02:01:59.612Z,505.40
2022-10-05T02:02:09.607Z,505.37
2022-10-05T02:02:19.599Z,505.33
2022-10-05T02:02:29.618Z,505.31
2022-10-05T02:02:39.659Z,505.40
2022-10-05T02:02:49.582Z,505.44
2022-10-05T02:02:59.590Z,505.37
2022-10-05T02:03:09.584Z,505.26
2022-10-05T02:03:19.585Z,505.30
2022-10-05T02:03:29.590Z,505.30
2022-10-05T02:03:39.589Z,505.28
2022-10-05T02:03:49.592Z,505.30
2022-10-05T02:03:59.590Z,505.22
2022-10-05T02:04:09.715Z,505.34
2022-10-05T02:04:42.779Z,505.25
2022-10-05T02:05:00.361Z,505.25
2022-10-05T02:05:01.383Z,505.27
2022-10-05T02:05:02.114Z,505.30